sensor_id;sensor_type;location;lat;lon;timestamp;P1;durP1;ratioP1;P2;durP2;ratioP2
69310;SDS011;56430;48.154;16.458;2023-04-25T00:01:23;0.20;;;0.00;;
69310;SDS011;56430;48.154;16.458;2023-04-25T00:04:02;0.43;;;0.00;;
69310;SDS011;56430;48.154;16.458;2023-04-25T00:06:30;0.30;;;0.10;;
69310;SDS011;56430;48.154;16.458;2023-04-25T00:08:57;0.35;;;0.00;;
69310;SDS011;56430;48.154;16.458;2023-04-25T00:11:24;0.22;;;0.00;;
69310;SDS011;56430;48.154;16.458;2023-04-25T00:13:51;0.22;;;0.00;;
69310;SDS011;56430;48.154;16.458;2023-04-25T00:16:18;0.60;;;0.00;;
69310;SDS011;56430;48.154;16.458;2023-04-25T00:18:45;0.25;;;0.00;;
69310;SDS011;56430;48.154;16.458;2023-04-25T00:21:17;0.45;;;0.10;;
69310;SDS011;56430;48.154;16.458;2023-04-25T00:23:45;0.40;;;0.03;;
69310;SDS011;56430;48.154;16.458;2023-04-25T00:26:12;0.75;;;0.15;;
69310;SDS011;56430;48.154;16.458;2023-04-25T00:28:39;0.30;;;0.10;;
69310;SDS011;56430;48.154;16.458;2023-04-25T00:31:05;0.30;;;0.00;;
69310;SDS011;56430;48.154;16.458;2023-04-25T00:33:32;0.93;;;0.30;;
69310;SDS011;56430;48.154;16.458;2023-04-25T00:36:00;0.30;;;0.10;;
69310;SDS011;56430;48.154;16.458;2023-04-25T00:38:27;0.50;;;0.10;;
69310;SDS011;56430;48.154;16.458;2023-04-25T00:40:55;0.50;;;0.20;;
69310;SDS011;56430;48.154;16.458;2023-04-25T00:43:23;0.38;;;0.03;;
69310;SDS011;56430;48.154;16.458;2023-04-25T00:45:50;0.38;;;0.00;;
69310;SDS011;56430;48.154;16.458;2023-04-25T00:48:19;0.50;;;0.05;;
69310;SDS011;56430;48.154;16.458;2023-04-25T00:50:48;0.70;;;0.00;;
69310;SDS011;56430;48.154;16.458;2023-04-25T00:53:17;0.17;;;0.00;;
69310;SDS011;56430;48.154;16.458;2023-04-25T00:55:44;0.35;;;0.13;;
69310;SDS011;56430;48.154;16.458;2023-04-25T00:58:13;0.30;;;0.00;;
69310;SDS011;56430;48.154;16.458;2023-04-25T01:00:40;0.52;;;0.10;;
69310;SDS011;56430;48.154;16.458;2023-04-25T01:03:07;0.38;;;0.10;;
69310;SDS011;56430;48.154;16.458;2023-04-25T01:05:38;0.50;;;0.10;;
69310;SDS011;56430;48.154;16.458;2023-04-25T01:08:06;1.30;;;0.10;;
69310;SDS011;56430;48.154;16.458;2023-04-25T01:10:32;0.43;;;0.05;;
69310;SDS011;56430;48.154;16.458;2023-04-25T01:12:59;0.30;;;0.00;;
69310;SDS011;56430;48.154;16.458;2023-04-25T01:15:28;0.28;;;0.00;;
69310;SDS011;56430;48.154;16.458;2023-04-25T01:17:54;0.63;;;0.20;;
69310;SDS011;56430;48.154;16.458;2023-04-25T01:20:22;0.20;;;0.00;;
69310;SDS011;56430;48.154;16.458;2023-04-25T01:22:51;0.70;;;0.10;;
69310;SDS011;56430;48.154;16.458;2023-04-25T01:25:18;0.20;;;0.00;;
69310;SDS011;56430;48.154;16.458;2023-04-25T01:27:46;0.32;;;0.10;;
69310;SDS011;56430;48.154;16.458;2023-04-25T01:30:13;0.37;;;0.00;;
69310;SDS011;56430;48.154;16.458;2023-04-25T01:32:40;0.55;;;0.10;;
69310;SDS011;56430;48.154;16.458;2023-04-25T01:35:08;0.32;;;0.00;;
69310;SDS011;56430;48.154;16.458;2023-04-25T01:37:38;0.90;;;0.40;;
69310;SDS011;56430;48.154;16.458;2023-04-25T01:40:07;0.40;;;0.10;;
69310;SDS011;56430;48.154;16.458;2023-04-25T01:42:35;0.30;;;0.00;;
69310;SDS011;56430;48.154;16.458;2023-04-25T01:45:02;0.90;;;0.25;;
69310;SDS011;56430;48.154;16.458;2023-04-25T01:47:29;0.65;;;0.10;;
69310;SDS011;56430;48.154;16.458;2023-04-25T01:49:56;0.40;;;0.00;;
69310;SDS011;56430;48.154;16.458;2023-04-25T01:52:23;0.70;;;0.13;;
69310;SDS011;56430;48.154;16.458;2023-04-25T01:54:49;0.70;;;0.00;;
69310;SDS011;56430;48.154;16.458;2023-04-25T01:57:18;0.60;;;0.00;;
69310;SDS011;56430;48.154;16.458;2023-04-25T01:59:45;0.40;;;0.00;;
69310;SDS011;56430;48.154;16.458;2023-04-25T02:02:13;0.43;;;0.00;;
69310;SDS011;56430;48.154;16.458;2023-04-25T02:04:42;1.05;;;0.20;;
69310;SDS011;56430;48.154;16.458;2023-04-25T02:07:09;0.83;;;0.03;;
69310;SDS011;56430;48.154;16.458;2023-04-25T02:09:36;0.17;;;0.00;;
69310;SDS011;56430;48.154;16.458;2023-04-25T02:12:03;0.85;;;0.17;;
69310;SDS011;56430;48.154;16.458;2023-04-25T02:14:31;0.35;;;0.00;;
69310;SDS011;56430;48.154;16.458;2023-04-25T02:16:58;0.47;;;0.00;;
69310;SDS011;56430;48.154;16.458;2023-04-25T02:19:25;1.00;;;0.20;;
69310;SDS011;56430;48.154;16.458;2023-04-25T02:21:52;0.38;;;0.00;;
69310;SDS011;56430;48.154;16.458;2023-04-25T02:24:19;0.20;;;0.00;;
69310;SDS011;56430;48.154;16.458;2023-04-25T02:26:46;1.27;;;0.30;;
69310;SDS011;56430;48.154;16.458;2023-04-25T02:29:15;0.80;;;0.30;;
69310;SDS011;56430;48.154;16.458;2023-04-25T02:31:43;0.30;;;0.00;;
69310;SDS011;56430;48.154;16.458;2023-04-25T02:34:10;0.77;;;0.10;;
69310;SDS011;56430;48.154;16.458;2023-04-25T02:36:37;0.40;;;0.03;;
69310;SDS011;56430;48.154;16.458;2023-04-25T02:39:04;1.13;;;0.30;;
69310;SDS011;56430;48.154;16.458;2023-04-25T02:41:31;0.50;;;0.00;;
69310;SDS011;56430;48.154;16.458;2023-04-25T02:43:57;0.70;;;0.20;;
69310;SDS011;56430;48.154;16.458;2023-04-25T02:46:24;0.80;;;0.20;;
69310;SDS011;56430;48.154;16.458;2023-04-25T02:48:53;0.90;;;0.20;;
69310;SDS011;56430;48.154;16.458;2023-04-25T02:51:19;0.57;;;0.10;;
69310;SDS011;56430;48.154;16.458;2023-04-25T02:53:46;0.73;;;0.13;;
69310;SDS011;56430;48.154;16.458;2023-04-25T02:56:13;0.53;;;0.10;;
69310;SDS011;56430;48.154;16.458;2023-04-25T02:58:40;0.32;;;0.00;;
69310;SDS011;56430;48.154;16.458;2023-04-25T03:01:07;1.00;;;0.20;;
69310;SDS011;56430;48.154;16.458;2023-04-25T03:03:34;0.47;;;0.03;;
69310;SDS011;56430;48.154;16.458;2023-04-25T03:06:03;0.50;;;0.10;;
69310;SDS011;56430;48.154;16.458;2023-04-25T03:08:30;1.90;;;0.47;;
69310;SDS011;56430;48.154;16.458;2023-04-25T03:10:58;0.60;;;0.00;;
69310;SDS011;56430;48.154;16.458;2023-04-25T03:13:25;0.20;;;0.00;;
69310;SDS011;56430;48.154;16.458;2023-04-25T03:15:52;0.52;;;0.10;;
69310;SDS011;56430;48.154;16.458;2023-04-25T03:18:19;1.50;;;0.30;;
69310;SDS011;56430;48.154;16.458;2023-04-25T03:20:46;0.27;;;0.00;;
69310;SDS011;56430;48.154;16.458;2023-04-25T03:23:14;0.20;;;0.00;;
69310;SDS011;56430;48.154;16.458;2023-04-25T03:25:41;0.65;;;0.08;;
69310;SDS011;56430;48.154;16.458;2023-04-25T03:28:08;0.40;;;0.00;;
69310;SDS011;56430;48.154;16.458;2023-04-25T03:30:35;0.75;;;0.10;;
69310;SDS011;56430;48.154;16.458;2023-04-25T03:33:02;0.47;;;0.07;;
69310;SDS011;56430;48.154;16.458;2023-04-25T03:35:32;0.57;;;0.10;;
69310;SDS011;56430;48.154;16.458;2023-04-25T03:37:58;0.73;;;0.20;;
69310;SDS011;56430;48.154;16.458;2023-04-25T03:40:27;0.28;;;0.10;;
69310;SDS011;56430;48.154;16.458;2023-04-25T03:42:54;0.80;;;0.20;;
69310;SDS011;56430;48.154;16.458;2023-04-25T03:45:20;0.30;;;0.00;;
69310;SDS011;56430;48.154;16.458;2023-04-25T03:47:47;0.77;;;0.17;;
69310;SDS011;56430;48.154;16.458;2023-04-25T03:50:14;0.90;;;0.20;;
69310;SDS011;56430;48.154;16.458;2023-04-25T03:52:42;0.60;;;0.10;;
69310;SDS011;56430;48.154;16.458;2023-04-25T03:55:09;1.10;;;0.13;;
69310;SDS011;56430;48.154;16.458;2023-04-25T03:57:37;6.23;;;0.30;;
69310;SDS011;56430;48.154;16.458;2023-04-25T04:00:05;0.98;;;0.10;;
69310;SDS011;56430;48.154;16.458;2023-04-25T04:02:32;1.02;;;0.17;;
69310;SDS011;56430;48.154;16.458;2023-04-25T04:05:00;0.88;;;0.05;;
69310;SDS011;56430;48.154;16.458;2023-04-25T04:07:27;0.50;;;0.00;;
69310;SDS011;56430;48.154;16.458;2023-04-25T04:09:53;1.13;;;0.20;;
69310;SDS011;56430;48.154;16.458;2023-04-25T04:12:20;0.45;;;0.00;;
69310;SDS011;56430;48.154;16.458;2023-04-25T04:14:48;0.43;;;0.10;;
69310;SDS011;56430;48.154;16.458;2023-04-25T04:17:15;0.63;;;0.30;;
69310;SDS011;56430;48.154;16.458;2023-04-25T04:19:42;0.30;;;0.00;;
69310;SDS011;56430;48.154;16.458;2023-04-25T04:22:09;0.60;;;0.17;;
69310;SDS011;56430;48.154;16.458;2023-04-25T04:24:36;0.22;;;0.00;;
69310;SDS011;56430;48.154;16.458;2023-04-25T04:27:03;0.32;;;0.10;;
69310;SDS011;56430;48.154;16.458;2023-04-25T04:29:31;0.95;;;0.30;;
69310;SDS011;56430;48.154;16.458;2023-04-25T04:31:59;0.47;;;0.10;;
69310;SDS011;56430;48.154;16.458;2023-04-25T04:34:26;0.70;;;0.10;;
69310;SDS011;56430;48.154;16.458;2023-04-25T04:36:53;0.45;;;0.10;;
69310;SDS011;56430;48.154;16.458;2023-04-25T04:39:20;0.35;;;0.00;;
69310;SDS011;56430;48.154;16.458;2023-04-25T04:41:47;0.22;;;0.03;;
69310;SDS011;56430;48.154;16.458;2023-04-25T04:44:14;0.60;;;0.10;;
69310;SDS011;56430;48.154;16.458;2023-04-25T04:46:41;1.80;;;0.10;;
69310;SDS011;56430;48.154;16.458;2023-04-25T04:49:10;2.30;;;0.20;;
69310;SDS011;56430;48.154;16.458;2023-04-25T04:51:37;0.52;;;0.22;;
69310;SDS011;56430;48.154;16.458;2023-04-25T04:54:04;0.43;;;0.15;;
69310;SDS011;56430;48.154;16.458;2023-04-25T04:56:31;0.80;;;0.20;;
69310;SDS011;56430;48.154;16.458;2023-04-25T04:58:58;0.60;;;0.20;;
69310;SDS011;56430;48.154;16.458;2023-04-25T05:01:25;0.43;;;0.10;;
69310;SDS011;56430;48.154;16.458;2023-04-25T05:03:52;0.82;;;0.10;;
69310;SDS011;56430;48.154;16.458;2023-04-25T05:06:20;0.40;;;0.00;;
69310;SDS011;56430;48.154;16.458;2023-04-25T05:08:47;0.80;;;0.10;;
69310;SDS011;56430;48.154;16.458;2023-04-25T05:11:17;0.23;;;0.00;;
69310;SDS011;56430;48.154;16.458;2023-04-25T05:13:44;0.20;;;0.00;;
69310;SDS011;56430;48.154;16.458;2023-04-25T05:16:11;0.75;;;0.20;;
69310;SDS011;56430;48.154;16.458;2023-04-25T05:18:38;0.75;;;0.25;;
69310;SDS011;56430;48.154;16.458;2023-04-25T05:21:05;0.40;;;0.00;;
69310;SDS011;56430;48.154;16.458;2023-04-25T05:23:33;0.40;;;0.00;;
69310;SDS011;56430;48.154;16.458;2023-04-25T05:26:00;0.50;;;0.15;;
69310;SDS011;56430;48.154;16.458;2023-04-25T05:28:27;0.60;;;0.10;;
69310;SDS011;56430;48.154;16.458;2023-04-25T05:30:54;0.32;;;0.10;;
69310;SDS011;56430;48.154;16.458;2023-04-25T05:33:21;1.17;;;0.22;;
69310;SDS011;56430;48.154;16.458;2023-04-25T05:35:48;0.30;;;0.00;;
69310;SDS011;56430;48.154;16.458;2023-04-25T05:38:15;0.40;;;0.05;;
69310;SDS011;56430;48.154;16.458;2023-04-25T05:40:43;0.98;;;0.15;;
69310;SDS011;56430;48.154;16.458;2023-04-25T05:43:10;0.45;;;0.00;;
69310;SDS011;56430;48.154;16.458;2023-04-25T05:45:37;0.88;;;0.05;;
69310;SDS011;56430;48.154;16.458;2023-04-25T05:48:04;0.17;;;0.00;;
69310;SDS011;56430;48.154;16.458;2023-04-25T05:50:31;0.32;;;0.10;;
69310;SDS011;56430;48.154;16.458;2023-04-25T05:52:58;1.25;;;0.10;;
69310;SDS011;56430;48.154;16.458;2023-04-25T05:55:25;1.00;;;0.10;;
69310;SDS011;56430;48.154;16.458;2023-04-25T05:57:53;0.50;;;0.10;;
69310;SDS011;56430;48.154;16.458;2023-04-25T06:00:20;1.03;;;0.13;;
69310;SDS011;56430;48.154;16.458;2023-04-25T06:02:48;1.25;;;0.65;;
69310;SDS011;56430;48.154;16.458;2023-04-25T06:05:15;0.70;;;0.30;;
69310;SDS011;56430;48.154;16.458;2023-04-25T06:07:42;0.68;;;0.20;;
69310;SDS011;56430;48.154;16.458;2023-04-25T06:10:09;0.73;;;0.17;;
69310;SDS011;56430;48.154;16.458;2023-04-25T06:12:36;0.93;;;0.10;;
69310;SDS011;56430;48.154;16.458;2023-04-25T06:15:05;0.13;;;0.00;;
69310;SDS011;56430;48.154;16.458;2023-04-25T06:17:33;0.40;;;0.10;;
69310;SDS011;56430;48.154;16.458;2023-04-25T06:20:00;0.45;;;0.13;;
69310;SDS011;56430;48.154;16.458;2023-04-25T06:22:27;1.10;;;0.00;;
69310;SDS011;56430;48.154;16.458;2023-04-25T06:24:54;0.30;;;0.10;;
69310;SDS011;56430;48.154;16.458;2023-04-25T06:27:25;0.43;;;0.13;;
69310;SDS011;56430;48.154;16.458;2023-04-25T06:29:54;0.63;;;0.20;;
69310;SDS011;56430;48.154;16.458;2023-04-25T06:32:23;0.52;;;0.00;;
69310;SDS011;56430;48.154;16.458;2023-04-25T06:34:50;1.02;;;0.20;;
69310;SDS011;56430;48.154;16.458;2023-04-25T06:37:17;0.30;;;0.10;;
69310;SDS011;56430;48.154;16.458;2023-04-25T06:39:44;0.30;;;0.00;;
69310;SDS011;56430;48.154;16.458;2023-04-25T06:42:11;0.98;;;0.40;;
69310;SDS011;56430;48.154;16.458;2023-04-25T06:44:37;0.63;;;0.15;;
69310;SDS011;56430;48.154;16.458;2023-04-25T06:47:04;0.85;;;0.22;;
69310;SDS011;56430;48.154;16.458;2023-04-25T06:49:33;0.47;;;0.10;;
69310;SDS011;56430;48.154;16.458;2023-04-25T06:52:00;0.50;;;0.10;;
69310;SDS011;56430;48.154;16.458;2023-04-25T06:54:26;0.90;;;0.25;;
69310;SDS011;56430;48.154;16.458;2023-04-25T06:56:55;0.60;;;0.20;;
69310;SDS011;56430;48.154;16.458;2023-04-25T06:59:24;3.00;;;0.45;;
69310;SDS011;56430;48.154;16.458;2023-04-25T07:01:51;1.00;;;0.40;;
69310;SDS011;56430;48.154;16.458;2023-04-25T07:04:17;1.70;;;0.10;;
69310;SDS011;56430;48.154;16.458;2023-04-25T07:06:46;0.55;;;0.10;;
69310;SDS011;56430;48.154;16.458;2023-04-25T07:09:13;1.35;;;0.17;;
69310;SDS011;56430;48.154;16.458;2023-04-25T07:11:40;1.17;;;0.20;;
69310;SDS011;56430;48.154;16.458;2023-04-25T07:14:07;1.40;;;0.10;;
69310;SDS011;56430;48.154;16.458;2023-04-25T07:16:34;0.75;;;0.10;;
69310;SDS011;56430;48.154;16.458;2023-04-25T07:19:01;1.23;;;0.30;;
69310;SDS011;56430;48.154;16.458;2023-04-25T07:21:28;1.25;;;0.20;;
69310;SDS011;56430;48.154;16.458;2023-04-25T07:23:57;1.10;;;0.25;;
69310;SDS011;56430;48.154;16.458;2023-04-25T07:26:24;0.90;;;0.10;;
69310;SDS011;56430;48.154;16.458;2023-04-25T07:28:51;1.52;;;0.30;;
69310;SDS011;56430;48.154;16.458;2023-04-25T07:31:20;1.63;;;0.50;;
69310;SDS011;56430;48.154;16.458;2023-04-25T07:33:46;1.92;;;0.30;;
69310;SDS011;56430;48.154;16.458;2023-04-25T07:36:13;1.90;;;0.30;;
69310;SDS011;56430;48.154;16.458;2023-04-25T07:38:41;2.07;;;0.40;;
69310;SDS011;56430;48.154;16.458;2023-04-25T07:41:12;1.90;;;0.53;;
69310;SDS011;56430;48.154;16.458;2023-04-25T07:43:39;2.17;;;0.57;;
69310;SDS011;56430;48.154;16.458;2023-04-25T07:46:06;1.40;;;0.40;;
69310;SDS011;56430;48.154;16.458;2023-04-25T07:48:33;2.60;;;0.70;;
69310;SDS011;56430;48.154;16.458;2023-04-25T07:51:00;1.60;;;0.47;;
69310;SDS011;56430;48.154;16.458;2023-04-25T07:53:27;2.63;;;0.80;;
69310;SDS011;56430;48.154;16.458;2023-04-25T07:55:54;1.80;;;0.63;;
69310;SDS011;56430;48.154;16.458;2023-04-25T07:58:22;1.27;;;0.50;;
69310;SDS011;56430;48.154;16.458;2023-04-25T08:00:49;2.00;;;0.75;;
69310;SDS011;56430;48.154;16.458;2023-04-25T08:03:16;1.85;;;0.65;;
69310;SDS011;56430;48.154;16.458;2023-04-25T08:05:42;2.10;;;0.82;;
69310;SDS011;56430;48.154;16.458;2023-04-25T08:08:09;1.60;;;0.60;;
69310;SDS011;56430;48.154;16.458;2023-04-25T08:10:36;1.67;;;0.70;;
69310;SDS011;56430;48.154;16.458;2023-04-25T08:13:03;1.73;;;0.70;;
69310;SDS011;56430;48.154;16.458;2023-04-25T08:15:31;1.90;;;0.75;;
69310;SDS011;56430;48.154;16.458;2023-04-25T08:17:58;1.70;;;0.70;;
69310;SDS011;56430;48.154;16.458;2023-04-25T08:20:26;1.60;;;0.60;;
69310;SDS011;56430;48.154;16.458;2023-04-25T08:22:52;1.70;;;0.80;;
69310;SDS011;56430;48.154;16.458;2023-04-25T08:25:20;1.65;;;0.73;;
69310;SDS011;56430;48.154;16.458;2023-04-25T08:27:46;2.03;;;0.90;;
69310;SDS011;56430;48.154;16.458;2023-04-25T08:30:13;2.17;;;0.82;;
69310;SDS011;56430;48.154;16.458;2023-04-25T08:32:42;2.10;;;1.25;;
69310;SDS011;56430;48.154;16.458;2023-04-25T08:35:09;2.13;;;1.00;;
69310;SDS011;56430;48.154;16.458;2023-04-25T08:37:36;2.13;;;0.80;;
69310;SDS011;56430;48.154;16.458;2023-04-25T08:40:04;2.00;;;0.90;;
69310;SDS011;56430;48.154;16.458;2023-04-25T08:42:33;1.90;;;1.00;;
69310;SDS011;56430;48.154;16.458;2023-04-25T08:45:01;1.60;;;0.73;;
69310;SDS011;56430;48.154;16.458;2023-04-25T08:47:28;1.75;;;0.85;;
69310;SDS011;56430;48.154;16.458;2023-04-25T08:49:57;2.20;;;1.00;;
69310;SDS011;56430;48.154;16.458;2023-04-25T08:52:27;1.48;;;0.68;;
69310;SDS011;56430;48.154;16.458;2023-04-25T08:54:54;1.85;;;0.88;;
69310;SDS011;56430;48.154;16.458;2023-04-25T08:57:21;2.10;;;0.93;;
69310;SDS011;56430;48.154;16.458;2023-04-25T08:59:49;1.90;;;0.98;;
69310;SDS011;56430;48.154;16.458;2023-04-25T09:02:16;2.10;;;0.90;;
69310;SDS011;56430;48.154;16.458;2023-04-25T09:04:46;2.00;;;0.90;;
69310;SDS011;56430;48.154;16.458;2023-04-25T09:07:14;1.80;;;0.93;;
69310;SDS011;56430;48.154;16.458;2023-04-25T09:09:44;2.30;;;1.20;;
69310;SDS011;56430;48.154;16.458;2023-04-25T09:12:10;1.95;;;1.20;;
69310;SDS011;56430;48.154;16.458;2023-04-25T09:14:37;1.80;;;0.90;;
69310;SDS011;56430;48.154;16.458;2023-04-25T09:17:04;1.60;;;0.90;;
69310;SDS011;56430;48.154;16.458;2023-04-25T09:19:33;1.88;;;0.90;;
69310;SDS011;56430;48.154;16.458;2023-04-25T09:22:02;1.88;;;0.75;;
69310;SDS011;56430;48.154;16.458;2023-04-25T09:24:31;1.60;;;0.55;;
69310;SDS011;56430;48.154;16.458;2023-04-25T09:26:58;1.67;;;0.68;;
69310;SDS011;56430;48.154;16.458;2023-04-25T09:29:30;1.95;;;0.55;;
69310;SDS011;56430;48.154;16.458;2023-04-25T09:32:16;1.70;;;0.57;;
69310;SDS011;56430;48.154;16.458;2023-04-25T09:34:43;1.57;;;0.50;;
69310;SDS011;56430;48.154;16.458;2023-04-25T09:37:16;1.33;;;0.43;;
69310;SDS011;56430;48.154;16.458;2023-04-25T09:39:45;1.67;;;0.35;;
69310;SDS011;56430;48.154;16.458;2023-04-25T09:42:12;1.23;;;0.30;;
69310;SDS011;56430;48.154;16.458;2023-04-25T09:44:41;3.83;;;0.38;;
69310;SDS011;56430;48.154;16.458;2023-04-25T09:47:09;1.17;;;0.30;;
69310;SDS011;56430;48.154;16.458;2023-04-25T09:49:38;1.23;;;0.32;;
69310;SDS011;56430;48.154;16.458;2023-04-25T09:52:05;1.45;;;0.30;;
69310;SDS011;56430;48.154;16.458;2023-04-25T09:54:32;1.20;;;0.28;;
69310;SDS011;56430;48.154;16.458;2023-04-25T09:57:01;0.82;;;0.10;;
69310;SDS011;56430;48.154;16.458;2023-04-25T09:59:30;1.33;;;0.30;;
69310;SDS011;56430;48.154;16.458;2023-04-25T10:01:58;0.85;;;0.20;;
69310;SDS011;56430;48.154;16.458;2023-04-25T10:10:31;1.13;;;0.10;;
69310;SDS011;56430;48.154;16.458;2023-04-25T10:13:05;0.50;;;0.10;;
69310;SDS011;56430;48.154;16.458;2023-04-25T10:15:34;1.10;;;0.10;;
69310;SDS011;56430;48.154;16.458;2023-04-25T10:18:02;0.90;;;0.20;;
69310;SDS011;56430;48.154;16.458;2023-04-25T10:20:29;2.22;;;0.30;;
69310;SDS011;56430;48.154;16.458;2023-04-25T10:22:57;0.98;;;0.30;;
69310;SDS011;56430;48.154;16.458;2023-04-25T10:25:25;1.63;;;0.40;;
69310;SDS011;56430;48.154;16.458;2023-04-25T10:27:52;0.85;;;0.10;;
69310;SDS011;56430;48.154;16.458;2023-04-25T10:30:20;0.65;;;0.10;;
69310;SDS011;56430;48.154;16.458;2023-04-25T10:32:47;1.35;;;0.30;;
69310;SDS011;56430;48.154;16.458;2023-04-25T10:35:16;1.00;;;0.20;;
69310;SDS011;56430;48.154;16.458;2023-04-25T10:37:59;0.80;;;0.20;;
69310;SDS011;56430;48.154;16.458;2023-04-25T10:40:26;3.28;;;0.30;;
69310;SDS011;56430;48.154;16.458;2023-04-25T10:42:53;0.88;;;0.13;;
69310;SDS011;56430;48.154;16.458;2023-04-25T10:45:22;0.70;;;0.10;;
69310;SDS011;56430;48.154;16.458;2023-04-25T10:47:49;0.70;;;0.10;;
69310;SDS011;56430;48.154;16.458;2023-04-25T10:50:16;0.83;;;0.10;;
69310;SDS011;56430;48.154;16.458;2023-04-25T10:52:43;0.60;;;0.10;;
69310;SDS011;56430;48.154;16.458;2023-04-25T10:55:10;0.40;;;0.10;;
69310;SDS011;56430;48.154;16.458;2023-04-25T10:57:39;1.10;;;0.20;;
69310;SDS011;56430;48.154;16.458;2023-04-25T11:00:08;0.52;;;0.10;;
69310;SDS011;56430;48.154;16.458;2023-04-25T11:02:42;1.05;;;0.20;;
69310;SDS011;56430;48.154;16.458;2023-04-25T11:05:10;0.47;;;0.10;;
69310;SDS011;56430;48.154;16.458;2023-04-25T11:07:44;0.82;;;0.10;;
69310;SDS011;56430;48.154;16.458;2023-04-25T11:10:15;0.93;;;0.13;;
69310;SDS011;56430;48.154;16.458;2023-04-25T11:12:45;0.80;;;0.10;;
69310;SDS011;56430;48.154;16.458;2023-04-25T11:15:15;1.00;;;0.20;;
69310;SDS011;56430;48.154;16.458;2023-04-25T11:17:44;0.63;;;0.10;;
69310;SDS011;56430;48.154;16.458;2023-04-25T11:20:12;1.15;;;0.20;;
69310;SDS011;56430;48.154;16.458;2023-04-25T11:22:39;0.75;;;0.10;;
69310;SDS011;56430;48.154;16.458;2023-04-25T11:25:08;2.13;;;0.68;;
69310;SDS011;56430;48.154;16.458;2023-04-25T11:27:37;1.10;;;0.20;;
69310;SDS011;56430;48.154;16.458;2023-04-25T11:30:10;1.23;;;0.30;;
69310;SDS011;56430;48.154;16.458;2023-04-25T11:32:39;1.08;;;0.20;;
69310;SDS011;56430;48.154;16.458;2023-04-25T11:35:07;1.42;;;0.30;;
69310;SDS011;56430;48.154;16.458;2023-04-25T11:37:34;1.40;;;0.30;;
69310;SDS011;56430;48.154;16.458;2023-04-25T11:40:02;1.27;;;0.30;;
69310;SDS011;56430;48.154;16.458;2023-04-25T11:42:29;1.33;;;0.30;;
69310;SDS011;56430;48.154;16.458;2023-04-25T11:44:56;1.27;;;0.30;;
69310;SDS011;56430;48.154;16.458;2023-04-25T11:47:27;1.33;;;0.20;;
69310;SDS011;56430;48.154;16.458;2023-04-25T11:49:54;1.02;;;0.17;;
69310;SDS011;56430;48.154;16.458;2023-04-25T11:52:22;0.90;;;0.20;;
69310;SDS011;56430;48.154;16.458;2023-04-25T11:54:51;1.20;;;0.20;;
69310;SDS011;56430;48.154;16.458;2023-04-25T11:57:19;2.60;;;0.23;;
69310;SDS011;56430;48.154;16.458;2023-04-25T11:59:46;0.55;;;0.10;;
69310;SDS011;56430;48.154;16.458;2023-04-25T12:02:23;1.63;;;0.20;;
69310;SDS011;56430;48.154;16.458;2023-04-25T12:04:50;0.60;;;0.00;;
69310;SDS011;56430;48.154;16.458;2023-04-25T12:07:17;0.43;;;0.00;;
69310;SDS011;56430;48.154;16.458;2023-04-25T12:09:51;0.50;;;0.00;;
69310;SDS011;56430;48.154;16.458;2023-04-25T12:12:18;0.70;;;0.15;;
69310;SDS011;56430;48.154;16.458;2023-04-25T12:14:46;1.15;;;0.20;;
69310;SDS011;56430;48.154;16.458;2023-04-25T12:17:13;0.45;;;0.10;;
69310;SDS011;56430;48.154;16.458;2023-04-25T12:19:40;1.23;;;0.40;;
69310;SDS011;56430;48.154;16.458;2023-04-25T12:22:19;0.73;;;0.30;;
69310;SDS011;56430;48.154;16.458;2023-04-25T12:24:46;1.15;;;0.30;;
69310;SDS011;56430;48.154;16.458;2023-04-25T12:27:15;0.60;;;0.10;;
69310;SDS011;56430;48.154;16.458;2023-04-25T12:29:50;0.40;;;0.10;;
69310;SDS011;56430;48.154;16.458;2023-04-25T12:32:17;0.88;;;0.10;;
69310;SDS011;56430;48.154;16.458;2023-04-25T12:34:44;0.97;;;0.40;;
69310;SDS011;56430;48.154;16.458;2023-04-25T12:37:11;0.50;;;0.00;;
69310;SDS011;56430;48.154;16.458;2023-04-25T12:39:38;1.02;;;0.20;;
69310;SDS011;56430;48.154;16.458;2023-04-25T12:42:05;1.30;;;0.25;;
69310;SDS011;56430;48.154;16.458;2023-04-25T12:44:34;1.42;;;0.20;;
69310;SDS011;56430;48.154;16.458;2023-04-25T12:47:01;0.70;;;0.10;;
69310;SDS011;56430;48.154;16.458;2023-04-25T12:49:28;0.70;;;0.10;;
69310;SDS011;56430;48.154;16.458;2023-04-25T12:51:55;0.68;;;0.10;;
69310;SDS011;56430;48.154;16.458;2023-04-25T12:54:22;0.30;;;0.00;;
69310;SDS011;56430;48.154;16.458;2023-04-25T12:56:50;0.75;;;0.10;;
69310;SDS011;56430;48.154;16.458;2023-04-25T12:59:17;0.57;;;0.10;;
69310;SDS011;56430;48.154;16.458;2023-04-25T13:01:45;0.50;;;0.00;;
69310;SDS011;56430;48.154;16.458;2023-04-25T13:04:12;0.82;;;0.10;;
69310;SDS011;56430;48.154;16.458;2023-04-25T13:06:39;0.50;;;0.10;;
69310;SDS011;56430;48.154;16.458;2023-04-25T13:09:05;0.63;;;0.10;;
69310;SDS011;56430;48.154;16.458;2023-04-25T13:11:33;0.77;;;0.10;;
69310;SDS011;56430;48.154;16.458;2023-04-25T13:14:00;0.68;;;0.10;;
69310;SDS011;56430;48.154;16.458;2023-04-25T13:16:27;0.60;;;0.10;;
69310;SDS011;56430;48.154;16.458;2023-04-25T13:18:55;1.15;;;0.10;;
69310;SDS011;56430;48.154;16.458;2023-04-25T13:21:22;1.02;;;0.10;;
69310;SDS011;56430;48.154;16.458;2023-04-25T13:23:49;0.80;;;0.20;;
69310;SDS011;56430;48.154;16.458;2023-04-25T13:26:16;0.95;;;0.10;;
69310;SDS011;56430;48.154;16.458;2023-04-25T13:28:43;0.60;;;0.10;;
69310;SDS011;56430;48.154;16.458;2023-04-25T13:31:10;0.50;;;0.03;;
69310;SDS011;56430;48.154;16.458;2023-04-25T13:33:37;0.40;;;0.00;;
69310;SDS011;56430;48.154;16.458;2023-04-25T13:36:05;0.80;;;0.10;;
69310;SDS011;56430;48.154;16.458;2023-04-25T13:38:32;0.73;;;0.10;;
69310;SDS011;56430;48.154;16.458;2023-04-25T13:40:59;0.90;;;0.10;;
69310;SDS011;56430;48.154;16.458;2023-04-25T13:43:26;0.50;;;0.10;;
69310;SDS011;56430;48.154;16.458;2023-04-25T13:45:53;0.63;;;0.17;;
69310;SDS011;56430;48.154;16.458;2023-04-25T13:48:20;1.10;;;0.20;;
69310;SDS011;56430;48.154;16.458;2023-04-25T13:50:48;1.15;;;0.20;;
69310;SDS011;56430;48.154;16.458;2023-04-25T13:53:16;0.70;;;0.10;;
69310;SDS011;56430;48.154;16.458;2023-04-25T13:55:43;0.70;;;0.10;;
69310;SDS011;56430;48.154;16.458;2023-04-25T13:58:10;1.00;;;0.20;;
69310;SDS011;56430;48.154;16.458;2023-04-25T14:00:38;0.40;;;0.10;;
69310;SDS011;56430;48.154;16.458;2023-04-25T14:03:08;0.60;;;0.10;;
69310;SDS011;56430;48.154;16.458;2023-04-25T14:05:35;0.70;;;0.10;;
69310;SDS011;56430;48.154;16.458;2023-04-25T14:08:05;0.65;;;0.20;;
69310;SDS011;56430;48.154;16.458;2023-04-25T14:10:33;0.70;;;0.10;;
69310;SDS011;56430;48.154;16.458;2023-04-25T14:13:00;0.73;;;0.10;;
69310;SDS011;56430;48.154;16.458;2023-04-25T14:15:29;0.70;;;0.10;;
69310;SDS011;56430;48.154;16.458;2023-04-25T14:17:55;0.90;;;0.17;;
69310;SDS011;56430;48.154;16.458;2023-04-25T14:20:22;1.50;;;0.25;;
69310;SDS011;56430;48.154;16.458;2023-04-25T14:22:49;0.50;;;0.10;;
69310;SDS011;56430;48.154;16.458;2023-04-25T14:25:17;0.73;;;0.13;;
69310;SDS011;56430;48.154;16.458;2023-04-25T14:27:45;0.75;;;0.15;;
69310;SDS011;56430;48.154;16.458;2023-04-25T14:30:15;0.50;;;0.10;;
69310;SDS011;56430;48.154;16.458;2023-04-25T14:32:42;0.60;;;0.10;;
69310;SDS011;56430;48.154;16.458;2023-04-25T14:35:09;1.20;;;0.20;;
69310;SDS011;56430;48.154;16.458;2023-04-25T14:37:36;0.80;;;0.10;;
69310;SDS011;56430;48.154;16.458;2023-04-25T14:40:03;0.70;;;0.10;;
69310;SDS011;56430;48.154;16.458;2023-04-25T14:42:30;0.57;;;0.00;;